»·PEaware :: N1210J KLAS-KSAN

N1210J :: KLAS-KSAN

FLIGHT INFORMATION

Flight Status: Arrived
Operator: Privately registered:
United States
More flights under this callsign
Pilot: Jordan D. (16847)
Aircraft: BOEING 737-600
(B736)
More flights by this aircraft type
Origin: KLAS McCarran Intl
United States
Destination: KSAN San Diego Intl-Lindbergh
United States
More flights between these airports :: More routes between these airports
Route: +BOACH8 LVELL LUCKI1
File this flight plan on PilotEdge
Remarks: PBN / A1B1C1D1L1O1S1 NAV / RNVD1E2A1 DOF / 181207 REG / N1210J RVR / 200 PER / C
Altitude:
(Current/Filed)
400ft
Speed:
(Current/Filed)
464kts
Departed: 07-Dec-18 08:11 AM
Arrived: 07-Dec-18 08:54 AM
Distance/Time
Traveled:
224nm/0:43
Distance/Time
To Go:
Arrived

Flight Plot

Page will automatically refresh every two minutes.

Flight plan parsing failed; only flown route is shown


Map Options




Map Legend


Flown Route
Filed Route
Departure Airport
Arrival Airport
Navaid (VOR, NDB)
Fix

Horizontal Profiles

Position Reports

Time Latitude Longitude Heading Altitude Ground
Speed
07-Dec-18 07:18 36.097021 -115.163104 117 2189ft 0kts
07-Dec-18 07:19 36.097021 -115.163104 117 2189ft 0kts
07-Dec-18 07:20 36.097021 -115.163104 117 2189ft 0kts
07-Dec-18 07:21 36.097021 -115.163104 117 2189ft 0kts
07-Dec-18 07:22 36.097021 -115.163104 117 2189ft 0kts
07-Dec-18 07:23 36.097021 -115.163104 117 2189ft 0kts
07-Dec-18 07:24 36.097021 -115.163104 117 2189ft 0kts
07-Dec-18 07:25 36.097021 -115.163104 117 2189ft 0kts
07-Dec-18 07:26 36.097021 -115.163104 117 2189ft 0kts
07-Dec-18 07:27 36.097021 -115.163104 117 2189ft 0kts
07-Dec-18 07:28 36.097021 -115.163104 117 2189ft 0kts
07-Dec-18 07:29 36.097021 -115.163104 117 2189ft 0kts
07-Dec-18 07:30 36.097021 -115.163104 117 2189ft 0kts
07-Dec-18 07:37 36.097021 -115.163104 117 2189ft 0kts
07-Dec-18 07:38 36.097021 -115.163104 117 2189ft 0kts
07-Dec-18 07:39 36.097021 -115.163104 117 2189ft 0kts
07-Dec-18 07:40 36.097021 -115.163104 117 2189ft 0kts
07-Dec-18 07:41 36.097021 -115.163104 117 2189ft 0kts
07-Dec-18 07:42 36.097021 -115.163104 117 2189ft 0kts
07-Dec-18 07:43 36.097021 -115.163104 117 2189ft 0kts
07-Dec-18 07:44 36.097021 -115.163104 117 2189ft 0kts
07-Dec-18 07:45 36.097021 -115.163104 117 2189ft 0kts
07-Dec-18 07:46 36.097021 -115.163104 117 2189ft 0kts
07-Dec-18 07:47 36.097021 -115.163104 117 2189ft 0kts
07-Dec-18 07:48 36.097021 -115.163104 117 2189ft 0kts
07-Dec-18 07:49 36.097021 -115.163104 117 2189ft 0kts
07-Dec-18 07:50 36.097021 -115.163104 117 2189ft 0kts
07-Dec-18 07:51 36.097021 -115.163104 117 2189ft 0kts
07-Dec-18 07:52 36.097021 -115.163104 117 2189ft 0kts
07-Dec-18 07:53 36.097021 -115.163104 117 2189ft 0kts
07-Dec-18 07:54 36.097021 -115.163104 117 2189ft 0kts
07-Dec-18 07:55 36.097021 -115.163104 117 2189ft 0kts
07-Dec-18 07:56 36.097021 -115.163104 117 2189ft 0kts
07-Dec-18 07:57 36.097021 -115.163104 117 2189ft 0kts
07-Dec-18 07:58 36.097021 -115.163104 117 2189ft 0kts
07-Dec-18 07:59 36.097021 -115.163104 117 2189ft 0kts
07-Dec-18 08:00 36.097021 -115.163104 117 2189ft 0kts
07-Dec-18 08:01 36.097021 -115.163104 117 2189ft 0kts
07-Dec-18 08:02 36.097021 -115.163104 117 2189ft 0kts
07-Dec-18 08:03 36.097021 -115.163104 117 2189ft 0kts
07-Dec-18 08:04 36.097021 -115.163104 117 2189ft 0kts
07-Dec-18 08:05 36.097021 -115.163104 117 2189ft 0kts
07-Dec-18 08:06 36.097021 -115.163104 117 2189ft 0kts
07-Dec-18 08:07 36.097573 -115.160916 57 2189ft 0kts
07-Dec-18 08:08 36.099083 -115.159199 29 2189ft 12kts
07-Dec-18 08:09 36.099792 -115.157130 119 2189ft 7kts
07-Dec-18 08:10 36.082158 -115.166823 206 2458ft 176kts
07-Dec-18 08:11 36.034701 -115.193728 205 6527ft 224kts
07-Dec-18 08:12 35.988359 -115.261663 242 9568ft 285kts
07-Dec-18 08:13 35.919779 -115.307172 187 14625ft 308kts
07-Dec-18 08:14 35.824786 -115.312267 175 17680ft 364kts
07-Dec-18 08:15 35.721768 -115.299693 175 21309ft 379kts
07-Dec-18 08:16 35.613326 -115.296884 182 24987ft 401kts
07-Dec-18 08:17 35.498203 -115.301812 183 27799ft 421kts
07-Dec-18 08:20 35.157846 -115.315200 183 28222ft 469kts
07-Dec-18 08:20 35.136000 -115.316060 183 28220ft 469kts
07-Dec-18 08:20 35.114210 -115.316922 183 28217ft 469kts
07-Dec-18 08:22 34.983473 -115.322060 183 28212ft 469kts
07-Dec-18 08:23 34.852800 -115.327159 183 28215ft 470kts
07-Dec-18 08:24 34.725191 -115.354693 200 28220ft 468kts
07-Dec-18 08:25 34.602691 -115.408796 201 28226ft 469kts
07-Dec-18 08:26 34.479452 -115.462766 201 28239ft 471kts
07-Dec-18 08:27 34.359884 -115.520761 207 28119ft 437kts
07-Dec-18 08:28 34.246329 -115.592165 208 28227ft 474kts
07-Dec-18 08:29 34.125297 -115.656060 201 28231ft 476kts
07-Dec-18 08:30 34.001849 -115.713306 202 28221ft 476kts
07-Dec-18 08:31 33.878715 -115.771936 203 28205ft 477kts
07-Dec-18 08:32 33.760935 -115.829678 203 28186ft 458kts
07-Dec-18 08:33 33.645827 -115.883483 202 28094ft 432kts
07-Dec-18 08:34 33.537809 -115.936048 210 25451ft 407kts
07-Dec-18 08:35 33.464586 -116.031908 234 22617ft 390kts
07-Dec-18 08:36 33.403439 -116.136948 234 21000ft 383kts
07-Dec-18 08:37 33.340961 -116.238033 223 19321ft 373kts
07-Dec-18 08:38 33.252673 -116.300041 206 17640ft 365kts
07-Dec-18 08:39 33.162162 -116.352860 206 15850ft 360kts
07-Dec-18 08:40 33.073775 -116.404405 206 14291ft 348kts
07-Dec-18 08:41 32.992377 -116.456770 218 12636ft 319kts
07-Dec-18 08:42 32.927225 -116.523348 222 11376ft 296kts
07-Dec-18 08:42 32.875810 -116.575132 220 10291ft 286kts
07-Dec-18 08:43 32.814988 -116.636291 220 9028ft 280kts
07-Dec-18 08:44 32.762100 -116.701554 239 7778ft 264kts
07-Dec-18 08:45 32.726634 -116.777792 240 6596ft 259kts
07-Dec-18 08:46 32.695823 -116.853945 250 5427ft 244kts
07-Dec-18 08:48 32.673033 -116.938321 268 4200ft 224kts
07-Dec-18 08:48 32.686091 -116.996594 289 3374ft 211kts
07-Dec-18 08:49 32.701942 -117.059451 287 2336ft 187kts
07-Dec-18 08:50 32.715543 -117.115274 286 1331ft 157kts
07-Dec-18 08:51 32.726105 -117.158790 286 476ft 119kts
07-Dec-18 08:52 32.734574 -117.193710 283 23ft 64kts
07-Dec-18 08:53 32.734272 -117.197159 107 23ft 27kts
07-Dec-18 08:54 32.732647 -117.188604 25 23ft 4kts
07-Dec-18 08:55 32.733503 -117.184741 105 23ft 27kts
07-Dec-18 08:56 32.732817 -117.179761 17 23ft 9kts
07-Dec-18 08:57 32.733890 -117.179030 207 23ft 0kts
07-Dec-18 08:58 32.733889 -117.179030 207 23ft 0kts
07-Dec-18 08:59 32.733889 -117.179030 207 23ft 0kts
07-Dec-18 09:00 32.733889 -117.179030 207 23ft 0kts
07-Dec-18 09:01 32.733889 -117.179030 207 23ft 0kts

Navigation Log

Ident Type
Flight plan parsing failed, navigation log unavailable